Terminal Aerodrome Forecast
Issued by NWS

Home | Current Version | Previous Version | Text Only | Print | Product List | Glossary On
Versions: 1 2 3 4 5 6 7 8 9 10 11 12 13 14 15
000
FTUS44 KSJT 251100
TAFJCT
TAF
KJCT 251125Z 2512/2612 19008KT P6SM FEW250
     FM251700 18015G24KT P6SM SCT250
     FM260000 17010KT P6SM BKN250
     FM261000 17007KT P6SM BKN020=

USA.gov is the U.S. government's official web portal to all federal, state and local government web resources and services.